sensor_id;sensor_type;location;lat;lon;timestamp;pressure;altitude;pressure_sealevel;temperature;humidity
50364;BME280;36272;59.400;17.982;2023-11-19T00:01:32;101790.34;;;-2.01;77.33
50364;BME280;36272;59.400;17.982;2023-11-19T00:06:34;101796.63;;;-2.04;77.30
50364;BME280;36272;59.400;17.982;2023-11-19T00:11:36;101792.69;;;-2.10;77.24
50364;BME280;36272;59.400;17.982;2023-11-19T00:16:37;101778.13;;;-2.14;77.11
50364;BME280;36272;59.400;17.982;2023-11-19T00:21:39;101774.78;;;-2.16;77.38
50364;BME280;36272;59.400;17.982;2023-11-19T00:26:42;101770.25;;;-2.14;77.17
50364;BME280;36272;59.400;17.982;2023-11-19T00:31:44;101759.97;;;-2.17;77.36
50364;BME280;36272;59.400;17.982;2023-11-19T00:36:46;101755.47;;;-2.15;77.05
50364;BME280;36272;59.400;17.982;2023-11-19T00:41:47;101747.38;;;-2.12;77.13
50364;BME280;36272;59.400;17.982;2023-11-19T00:46:49;101750.72;;;-2.10;77.16
50364;BME280;36272;59.400;17.982;2023-11-19T00:51:50;101742.84;;;-2.10;76.93
50364;BME280;36272;59.400;17.982;2023-11-19T00:56:52;101729.75;;;-2.10;77.08
50364;BME280;36272;59.400;17.982;2023-11-19T01:01:54;101729.75;;;-2.10;77.00
50364;BME280;36272;59.400;17.982;2023-11-19T01:06:57;101729.75;;;-2.10;76.90
50364;BME280;36272;59.400;17.982;2023-11-19T01:11:59;101733.19;;;-2.09;77.05
50364;BME280;36272;59.400;17.982;2023-11-19T01:17:01;101723.66;;;-2.10;77.18
50364;BME280;36272;59.400;17.982;2023-11-19T01:22:03;101716.84;;;-2.13;77.17
50364;BME280;36272;59.400;17.982;2023-11-19T01:27:05;101721.97;;;-2.11;76.96
50364;BME280;36272;59.400;17.982;2023-11-19T01:32:06;101709.94;;;-2.14;76.79
50364;BME280;36272;59.400;17.982;2023-11-19T01:37:08;101720.66;;;-2.17;77.03
50364;BME280;36272;59.400;17.982;2023-11-19T01:42:11;101719.94;;;-2.19;76.92
50364;BME280;36272;59.400;17.982;2023-11-19T01:47:16;101712.41;;;-2.23;77.00
50364;BME280;36272;59.400;17.982;2023-11-19T01:52:20;101697.50;;;-2.23;77.04
50364;BME280;36272;59.400;17.982;2023-11-19T01:57:23;101688.94;;;-2.25;76.87
50364;BME280;36272;59.400;17.982;2023-11-19T02:02:25;101677.84;;;-2.29;77.28
50364;BME280;36272;59.400;17.982;2023-11-19T02:07:27;101675.31;;;-2.30;77.04
50364;BME280;36272;59.400;17.982;2023-11-19T02:12:29;101665.06;;;-2.33;77.07
50364;BME280;36272;59.400;17.982;2023-11-19T02:17:31;101661.63;;;-2.34;77.10
50364;BME280;36272;59.400;17.982;2023-11-19T02:22:33;101663.63;;;-2.37;77.07
50364;BME280;36272;59.400;17.982;2023-11-19T02:27:53;101662.16;;;-2.42;77.38
50364;BME280;36272;59.400;17.982;2023-11-19T02:32:57;101662.16;;;-2.42;77.32
50364;BME280;36272;59.400;17.982;2023-11-19T02:38:24;101649.06;;;-2.42;77.24
50364;BME280;36272;59.400;17.982;2023-11-19T02:43:25;101647.28;;;-2.41;77.17
50364;BME280;36272;59.400;17.982;2023-11-19T02:48:27;101630.72;;;-2.42;77.16
50364;BME280;36272;59.400;17.982;2023-11-19T02:53:29;101625.47;;;-2.42;77.29
50364;BME280;36272;59.400;17.982;2023-11-19T02:58:32;101612.28;;;-2.40;77.31
50364;BME280;36272;59.400;17.982;2023-11-19T03:03:33;101601.66;;;-2.39;77.33
50364;BME280;36272;59.400;17.982;2023-11-19T03:08:39;101594.53;;;-2.36;77.29
50364;BME280;36272;59.400;17.982;2023-11-19T03:13:41;101585.59;;;-2.34;77.36
50364;BME280;36272;59.400;17.982;2023-11-19T03:18:43;101586.44;;;-2.33;77.19
50364;BME280;36272;59.400;17.982;2023-11-19T03:23:44;101583.09;;;-2.35;77.31
50364;BME280;36272;59.400;17.982;2023-11-19T03:28:46;101568.22;;;-2.35;77.37
50364;BME280;36272;59.400;17.982;2023-11-19T03:33:47;101557.97;;;-2.38;77.31
50364;BME280;36272;59.400;17.982;2023-11-19T03:38:49;101552.59;;;-2.36;77.32
50364;BME280;36272;59.400;17.982;2023-11-19T03:43:50;101546.63;;;-2.39;77.37
50364;BME280;36272;59.400;17.982;2023-11-19T03:48:52;101545.19;;;-2.43;77.39
50364;BME280;36272;59.400;17.982;2023-11-19T03:53:53;101542.56;;;-2.43;77.33
50364;BME280;36272;59.400;17.982;2023-11-19T03:58:55;101531.13;;;-2.42;77.54
50364;BME280;36272;59.400;17.982;2023-11-19T04:03:57;101526.03;;;-2.43;77.53
50364;BME280;36272;59.400;17.982;2023-11-19T04:08:58;101518.88;;;-2.41;77.51
50364;BME280;36272;59.400;17.982;2023-11-19T04:14:00;101507.69;;;-2.43;77.63
50364;BME280;36272;59.400;17.982;2023-11-19T04:19:01;101504.81;;;-2.40;77.52
50364;BME280;36272;59.400;17.982;2023-11-19T04:24:03;101493.63;;;-2.42;77.65
50364;BME280;36272;59.400;17.982;2023-11-19T04:29:05;101491.13;;;-2.44;77.76
50364;BME280;36272;59.400;17.982;2023-11-19T04:34:07;101482.28;;;-2.43;77.65
50364;BME280;36272;59.400;17.982;2023-11-19T04:39:09;101467.78;;;-2.47;77.85
50364;BME280;36272;59.400;17.982;2023-11-19T04:44:13;101468.59;;;-2.46;77.88
50364;BME280;36272;59.400;17.982;2023-11-19T04:49:14;101462.78;;;-2.50;77.81
50364;BME280;36272;59.400;17.982;2023-11-19T04:54:17;101448.81;;;-2.50;77.95
50364;BME280;36272;59.400;17.982;2023-11-19T04:59:20;101448.97;;;-2.52;77.84
50364;BME280;36272;59.400;17.982;2023-11-19T05:04:21;101460.97;;;-2.49;78.00
50364;BME280;36272;59.400;17.982;2023-11-19T05:09:23;101454.19;;;-2.52;78.08
50364;BME280;36272;59.400;17.982;2023-11-19T05:14:24;101446.09;;;-2.49;78.04
50364;BME280;36272;59.400;17.982;2023-11-19T05:19:26;101445.13;;;-2.59;78.01
50364;BME280;36272;59.400;17.982;2023-11-19T05:24:27;101437.88;;;-2.67;78.21
50364;BME280;36272;59.400;17.982;2023-11-19T05:29:29;101432.03;;;-2.71;78.37
50364;BME280;36272;59.400;17.982;2023-11-19T05:34:31;101428.81;;;-2.74;78.48
50364;BME280;36272;59.400;17.982;2023-11-19T05:39:32;101423.91;;;-2.79;78.37
50364;BME280;36272;59.400;17.982;2023-11-19T05:44:34;101416.50;;;-2.85;78.66
50364;BME280;36272;59.400;17.982;2023-11-19T05:49:36;101411.06;;;-2.93;78.60
50364;BME280;36272;59.400;17.982;2023-11-19T05:54:38;101410.78;;;-3.02;78.67
50364;BME280;36272;59.400;17.982;2023-11-19T05:59:40;101413.88;;;-3.08;78.72
50364;BME280;36272;59.400;17.982;2023-11-19T06:04:41;101411.94;;;-3.17;78.73
50364;BME280;36272;59.400;17.982;2023-11-19T06:09:45;101408.09;;;-3.24;78.78
50364;BME280;36272;59.400;17.982;2023-11-19T06:14:47;101410.22;;;-3.30;79.00
50364;BME280;36272;59.400;17.982;2023-11-19T06:19:48;101405.47;;;-3.36;78.85
50364;BME280;36272;59.400;17.982;2023-11-19T06:24:50;101410.69;;;-3.36;78.90
50364;BME280;36272;59.400;17.982;2023-11-19T06:29:51;101412.25;;;-3.33;79.02
50364;BME280;36272;59.400;17.982;2023-11-19T06:34:53;101414.75;;;-3.32;78.95
50364;BME280;36272;59.400;17.982;2023-11-19T06:39:55;101410.00;;;-3.26;78.72
50364;BME280;36272;59.400;17.982;2023-11-19T06:44:56;101387.88;;;-3.22;78.85
50364;BME280;36272;59.400;17.982;2023-11-19T06:50:01;101379.09;;;-3.21;78.80
50364;BME280;36272;59.400;17.982;2023-11-19T06:55:03;101367.56;;;-3.19;78.75
50364;BME280;36272;59.400;17.982;2023-11-19T07:00:06;101374.34;;;-3.16;78.62
50364;BME280;36272;59.400;17.982;2023-11-19T07:05:07;101363.63;;;-3.13;78.73
50364;BME280;36272;59.400;17.982;2023-11-19T07:10:09;101357.47;;;-3.12;78.89
50364;BME280;36272;59.400;17.982;2023-11-19T07:15:11;101367.56;;;-3.07;78.83
50364;BME280;36272;59.400;17.982;2023-11-19T07:20:13;101369.00;;;-3.03;78.78
50364;BME280;36272;59.400;17.982;2023-11-19T07:25:16;101363.53;;;-3.00;78.87
50364;BME280;36272;59.400;17.982;2023-11-19T07:30:19;101364.16;;;-2.96;78.85
50364;BME280;36272;59.400;17.982;2023-11-19T07:35:20;101348.31;;;-2.95;78.98
50364;BME280;36272;59.400;17.982;2023-11-19T07:40:25;101347.34;;;-2.94;78.98
50364;BME280;36272;59.400;17.982;2023-11-19T07:45:27;101347.34;;;-2.94;79.07
50364;BME280;36272;59.400;17.982;2023-11-19T07:50:28;101341.06;;;-2.91;79.00
50364;BME280;36272;59.400;17.982;2023-11-19T07:55:33;101341.41;;;-2.85;79.15
50364;BME280;36272;59.400;17.982;2023-11-19T08:00:35;101344.38;;;-2.78;78.91
50364;BME280;36272;59.400;17.982;2023-11-19T08:05:36;101342.97;;;-2.71;79.13
50364;BME280;36272;59.400;17.982;2023-11-19T08:10:38;101338.34;;;-2.67;79.14
50364;BME280;36272;59.400;17.982;2023-11-19T08:15:41;101337.72;;;-2.59;79.18
50364;BME280;36272;59.400;17.982;2023-11-19T08:20:42;101344.00;;;-2.50;79.18
50364;BME280;36272;59.400;17.982;2023-11-19T08:25:46;101355.81;;;-2.45;79.16
50364;BME280;36272;59.400;17.982;2023-11-19T08:30:48;101342.91;;;-2.36;78.99
50364;BME280;36272;59.400;17.982;2023-11-19T08:35:49;101335.19;;;-2.27;79.29
50364;BME280;36272;59.400;17.982;2023-11-19T08:40:51;101326.44;;;-2.16;79.25
50364;BME280;36272;59.400;17.982;2023-11-19T08:45:53;101327.13;;;-2.02;79.14
50364;BME280;36272;59.400;17.982;2023-11-19T08:50:55;101333.66;;;-1.97;79.20
50364;BME280;36272;59.400;17.982;2023-11-19T08:55:56;101325.16;;;-1.89;79.11
50364;BME280;36272;59.400;17.982;2023-11-19T09:00:58;101323.94;;;-1.85;79.17
50364;BME280;36272;59.400;17.982;2023-11-19T09:06:00;101332.28;;;-1.80;79.28
50364;BME280;36272;59.400;17.982;2023-11-19T09:11:06;101320.81;;;-1.78;79.42
50364;BME280;36272;59.400;17.982;2023-11-19T09:16:12;101306.09;;;-1.70;79.32
50364;BME280;36272;59.400;17.982;2023-11-19T09:21:13;101303.31;;;-1.57;79.32
50364;BME280;36272;59.400;17.982;2023-11-19T09:26:15;101289.16;;;-1.44;79.13
50364;BME280;36272;59.400;17.982;2023-11-19T09:31:17;101282.63;;;-1.29;79.12
50364;BME280;36272;59.400;17.982;2023-11-19T09:36:19;101288.50;;;-1.15;79.03
50364;BME280;36272;59.400;17.982;2023-11-19T09:41:21;101255.91;;;-1.03;78.97
50364;BME280;36272;59.400;17.982;2023-11-19T09:46:23;101270.63;;;-0.91;78.81
50364;BME280;36272;59.400;17.982;2023-11-19T09:51:25;101268.41;;;-0.85;78.87
50364;BME280;36272;59.400;17.982;2023-11-19T09:56:30;101270.94;;;-0.74;79.09
50364;BME280;36272;59.400;17.982;2023-11-19T10:01:33;101257.28;;;-0.58;78.84
50364;BME280;36272;59.400;17.982;2023-11-19T10:06:35;101252.63;;;-0.44;78.47
50364;BME280;36272;59.400;17.982;2023-11-19T10:11:37;101238.78;;;-0.27;78.43
50364;BME280;36272;59.400;17.982;2023-11-19T10:16:38;101228.66;;;-0.12;78.43
50364;BME280;36272;59.400;17.982;2023-11-19T10:21:41;101212.91;;;-0.02;78.01
50364;BME280;36272;59.400;17.982;2023-11-19T10:26:42;101213.84;;;0.07;78.05
50364;BME280;36272;59.400;17.982;2023-11-19T10:31:55;101197.09;;;0.08;78.08
50364;BME280;36272;59.400;17.982;2023-11-19T10:37:00;101202.09;;;0.11;77.96
50364;BME280;36272;59.400;17.982;2023-11-19T10:42:15;101198.47;;;0.12;78.10
50364;BME280;36272;59.400;17.982;2023-11-19T10:47:19;101178.81;;;0.16;78.03
50364;BME280;36272;59.400;17.982;2023-11-19T10:52:21;101184.47;;;0.21;77.87
50364;BME280;36272;59.400;17.982;2023-11-19T10:57:24;101180.00;;;0.32;77.86
50364;BME280;36272;59.400;17.982;2023-11-19T11:02:33;101182.31;;;0.44;77.65
50364;BME280;36272;59.400;17.982;2023-11-19T11:07:38;101185.22;;;0.51;77.16
50364;BME280;36272;59.400;17.982;2023-11-19T11:12:41;101182.72;;;0.50;76.90
50364;BME280;36272;59.400;17.982;2023-11-19T11:17:43;101170.09;;;0.53;77.01
50364;BME280;36272;59.400;17.982;2023-11-19T11:28:29;101158.72;;;0.53;77.05
50364;BME280;36272;59.400;17.982;2023-11-19T11:38:59;101152.34;;;0.55;76.98
50364;BME280;36272;59.400;17.982;2023-11-19T11:44:02;101148.75;;;0.56;76.73
50364;BME280;36272;59.400;17.982;2023-11-19T11:49:07;101147.09;;;0.55;76.71
50364;BME280;36272;59.400;17.982;2023-11-19T11:54:25;101137.34;;;0.66;76.65
50364;BME280;36272;59.400;17.982;2023-11-19T11:59:36;101136.44;;;0.75;76.72
50364;BME280;36272;59.400;17.982;2023-11-19T12:04:40;101142.78;;;0.82;76.21
50364;BME280;36272;59.400;17.982;2023-11-19T12:09:42;101148.75;;;0.84;76.18
50364;BME280;36272;59.400;17.982;2023-11-19T12:15:03;101148.63;;;0.76;76.28
50364;BME280;36272;59.400;17.982;2023-11-19T12:20:08;101136.16;;;0.78;76.19
50364;BME280;36272;59.400;17.982;2023-11-19T12:25:13;101130.88;;;0.78;76.09
50364;BME280;36272;59.400;17.982;2023-11-19T12:30:21;101121.91;;;0.71;75.89
50364;BME280;36272;59.400;17.982;2023-11-19T12:35:24;101122.13;;;0.59;75.91
50364;BME280;36272;59.400;17.982;2023-11-19T12:40:25;101119.69;;;0.48;76.14
50364;BME280;36272;59.400;17.982;2023-11-19T12:45:36;101113.56;;;0.48;76.42
50364;BME280;36272;59.400;17.982;2023-11-19T12:55:52;101110.19;;;0.37;76.15
50364;BME280;36272;59.400;17.982;2023-11-19T13:01:05;101094.13;;;0.31;75.91
50364;BME280;36272;59.400;17.982;2023-11-19T13:06:09;101102.59;;;0.24;75.76
50364;BME280;36272;59.400;17.982;2023-11-19T13:11:14;101102.50;;;0.16;75.90
50364;BME280;36272;59.400;17.982;2023-11-19T13:16:18;101102.09;;;0.11;75.99
50364;BME280;36272;59.400;17.982;2023-11-19T13:21:20;101099.06;;;0.06;76.13
50364;BME280;36272;59.400;17.982;2023-11-19T13:26:22;101092.28;;;0.03;76.19
50364;BME280;36272;59.400;17.982;2023-11-19T13:31:24;101094.09;;;0.03;76.39
50364;BME280;36272;59.400;17.982;2023-11-19T13:36:25;101097.84;;;0.00;76.17
50364;BME280;36272;59.400;17.982;2023-11-19T13:41:27;101094.38;;;-0.01;76.08
50364;BME280;36272;59.400;17.982;2023-11-19T13:46:29;101088.44;;;-0.03;76.03
50364;BME280;36272;59.400;17.982;2023-11-19T13:51:31;101094.94;;;-0.07;76.26
50364;BME280;36272;59.400;17.982;2023-11-19T13:56:35;101088.88;;;-0.07;76.33
50364;BME280;36272;59.400;17.982;2023-11-19T14:01:39;101083.63;;;-0.07;76.37
50364;BME280;36272;59.400;17.982;2023-11-19T14:06:40;101084.44;;;-0.07;76.46
50364;BME280;36272;59.400;17.982;2023-11-19T14:11:42;101085.41;;;-0.08;76.64
50364;BME280;36272;59.400;17.982;2023-11-19T14:16:44;101077.78;;;-0.11;76.41
50364;BME280;36272;59.400;17.982;2023-11-19T14:21:46;101072.53;;;-0.11;76.63
50364;BME280;36272;59.400;17.982;2023-11-19T14:26:50;101078.75;;;-0.12;76.85
50364;BME280;36272;59.400;17.982;2023-11-19T14:31:53;101070.88;;;-0.12;76.91
50364;BME280;36272;59.400;17.982;2023-11-19T14:36:55;101062.28;;;-0.14;77.02
50364;BME280;36272;59.400;17.982;2023-11-19T14:41:57;101065.78;;;-0.13;77.00
50364;BME280;36272;59.400;17.982;2023-11-19T14:47:02;101070.19;;;-0.14;77.09
50364;BME280;36272;59.400;17.982;2023-11-19T14:52:04;101054.69;;;-0.17;77.23
50364;BME280;36272;59.400;17.982;2023-11-19T14:57:06;101054.97;;;-0.20;77.36
50364;BME280;36272;59.400;17.982;2023-11-19T15:02:11;101061.75;;;-0.18;77.18
50364;BME280;36272;59.400;17.982;2023-11-19T15:07:12;101054.00;;;-0.19;77.38
50364;BME280;36272;59.400;17.982;2023-11-19T15:12:14;101040.72;;;-0.18;77.48
50364;BME280;36272;59.400;17.982;2023-11-19T15:24:09;101040.31;;;-0.23;77.61
50364;BME280;36272;59.400;17.982;2023-11-19T15:35:47;101031.75;;;-0.25;77.66
50364;BME280;36272;59.400;17.982;2023-11-19T15:40:51;101042.38;;;-0.17;77.81
50364;BME280;36272;59.400;17.982;2023-11-19T15:46:40;101030.88;;;-0.16;78.06
50364;BME280;36272;59.400;17.982;2023-11-19T15:51:42;101023.81;;;-0.15;77.98
50364;BME280;36272;59.400;17.982;2023-11-19T15:56:44;101038.50;;;-0.12;78.09
50364;BME280;36272;59.400;17.982;2023-11-19T16:01:46;101051.19;;;-0.08;78.09
50364;BME280;36272;59.400;17.982;2023-11-19T16:06:48;101044.00;;;-0.06;78.19
50364;BME280;36272;59.400;17.982;2023-11-19T16:11:50;101047.47;;;-0.05;78.14
50364;BME280;36272;59.400;17.982;2023-11-19T16:16:51;101047.31;;;-0.04;78.17
50364;BME280;36272;59.400;17.982;2023-11-19T16:21:54;101055.91;;;-0.02;78.21
50364;BME280;36272;59.400;17.982;2023-11-19T16:26:55;101047.03;;;-0.01;78.14
50364;BME280;36272;59.400;17.982;2023-11-19T16:31:57;101044.94;;;0.03;78.50
50364;BME280;36272;59.400;17.982;2023-11-19T16:36:59;101051.03;;;0.04;78.39
50364;BME280;36272;59.400;17.982;2023-11-19T16:42:01;101056.81;;;0.07;78.52
50364;BME280;36272;59.400;17.982;2023-11-19T16:47:02;101049.78;;;0.08;78.60
50364;BME280;36272;59.400;17.982;2023-11-19T16:52:05;101051.44;;;0.09;78.64
50364;BME280;36272;59.400;17.982;2023-11-19T16:57:07;101044.50;;;0.08;78.83
50364;BME280;36272;59.400;17.982;2023-11-19T17:02:08;101049.47;;;0.11;78.70
50364;BME280;36272;59.400;17.982;2023-11-19T17:07:16;101036.63;;;0.08;79.21
50364;BME280;36272;59.400;17.982;2023-11-19T17:12:18;101044.91;;;0.13;79.05
50364;BME280;36272;59.400;17.982;2023-11-19T17:17:19;101042.41;;;0.11;79.07
50364;BME280;36272;59.400;17.982;2023-11-19T17:22:21;101035.34;;;0.12;79.21
50364;BME280;36272;59.400;17.982;2023-11-19T17:27:22;101042.28;;;0.13;79.12
50364;BME280;36272;59.400;17.982;2023-11-19T17:32:25;101043.94;;;0.14;79.19
50364;BME280;36272;59.400;17.982;2023-11-19T17:37:27;101041.16;;;0.16;79.35
50364;BME280;36272;59.400;17.982;2023-11-19T17:42:28;101038.38;;;0.17;79.38
50364;BME280;36272;59.400;17.982;2023-11-19T17:47:30;101044.63;;;0.16;79.63
50364;BME280;36272;59.400;17.982;2023-11-19T17:52:32;101040.03;;;0.18;79.55
50364;BME280;36272;59.400;17.982;2023-11-19T17:57:36;101047.66;;;0.21;79.47
50364;BME280;36272;59.400;17.982;2023-11-19T18:02:43;101044.34;;;0.19;79.37
50364;BME280;36272;59.400;17.982;2023-11-19T18:07:49;101051.25;;;0.20;79.33
50364;BME280;36272;59.400;17.982;2023-11-19T18:12:51;101046.97;;;0.19;79.33
50364;BME280;36272;59.400;17.982;2023-11-19T18:17:52;101051.38;;;0.19;79.37
50364;BME280;36272;59.400;17.982;2023-11-19T18:22:54;101046.00;;;0.20;79.64
50364;BME280;36272;59.400;17.982;2023-11-19T18:27:56;101047.78;;;0.20;79.65
50364;BME280;36272;59.400;17.982;2023-11-19T18:32:58;101053.88;;;0.20;79.74
50364;BME280;36272;59.400;17.982;2023-11-19T18:37:59;101047.78;;;0.20;79.74
50364;BME280;36272;59.400;17.982;2023-11-19T18:43:01;101043.34;;;0.20;79.67
50364;BME280;36272;59.400;17.982;2023-11-19T18:48:04;101035.31;;;0.22;79.58
50364;BME280;36272;59.400;17.982;2023-11-19T18:53:08;101042.22;;;0.23;79.62
50364;BME280;36272;59.400;17.982;2023-11-19T18:58:10;101042.38;;;0.21;79.76
50364;BME280;36272;59.400;17.982;2023-11-19T19:03:11;101024.78;;;0.22;79.67
50364;BME280;36272;59.400;17.982;2023-11-19T19:08:15;101045.03;;;0.21;79.59
50364;BME280;36272;59.400;17.982;2023-11-19T19:13:16;101043.19;;;0.22;79.77
50364;BME280;36272;59.400;17.982;2023-11-19T19:18:18;101041.38;;;0.22;79.65
50364;BME280;36272;59.400;17.982;2023-11-19T19:23:21;101054.41;;;0.24;79.63
50364;BME280;36272;59.400;17.982;2023-11-19T19:28:23;101064.78;;;0.25;79.61
50364;BME280;36272;59.400;17.982;2023-11-19T19:33:24;101065.63;;;0.26;79.87
50364;BME280;36272;59.400;17.982;2023-11-19T19:38:26;101067.13;;;0.28;79.91
50364;BME280;36272;59.400;17.982;2023-11-19T19:43:27;101056.47;;;0.30;79.82
50364;BME280;36272;59.400;17.982;2023-11-19T19:48:29;101056.31;;;0.32;79.75
50364;BME280;36272;59.400;17.982;2023-11-19T19:53:31;101064.88;;;0.34;79.75
50364;BME280;36272;59.400;17.982;2023-11-19T19:58:32;101062.25;;;0.34;79.94
50364;BME280;36272;59.400;17.982;2023-11-19T20:03:34;101057.84;;;0.34;80.10
50364;BME280;36272;59.400;17.982;2023-11-19T20:08:39;101054.06;;;0.37;79.96
50364;BME280;36272;59.400;17.982;2023-11-19T20:13:41;101062.94;;;0.36;80.16
50364;BME280;36272;59.400;17.982;2023-11-19T20:18:43;101058.81;;;0.33;80.00
50364;BME280;36272;59.400;17.982;2023-11-19T20:23:45;101063.38;;;0.31;80.28
50364;BME280;36272;59.400;17.982;2023-11-19T20:28:46;101067.66;;;0.32;80.38
50364;BME280;36272;59.400;17.982;2023-11-19T20:33:48;101069.47;;;0.32;80.49
50364;BME280;36272;59.400;17.982;2023-11-19T20:38:52;101063.22;;;0.33;80.72
50364;BME280;36272;59.400;17.982;2023-11-19T20:43:55;101070.81;;;0.36;80.65
50364;BME280;36272;59.400;17.982;2023-11-19T20:48:56;101068.19;;;0.36;80.79
50364;BME280;36272;59.400;17.982;2023-11-19T20:53:59;101058.66;;;0.35;80.64
50364;BME280;36272;59.400;17.982;2023-11-19T20:59:01;101058.94;;;0.32;80.89
50364;BME280;36272;59.400;17.982;2023-11-19T21:04:03;101057.97;;;0.33;80.93
50364;BME280;36272;59.400;17.982;2023-11-19T21:09:04;101052.69;;;0.33;80.97
50364;BME280;36272;59.400;17.982;2023-11-19T21:14:06;101073.75;;;0.33;81.29
50364;BME280;36272;59.400;17.982;2023-11-19T21:19:08;101066.81;;;0.32;81.22
50364;BME280;36272;59.400;17.982;2023-11-19T21:24:10;101063.22;;;0.33;80.90
50364;BME280;36272;59.400;17.982;2023-11-19T21:29:12;101061.28;;;0.35;81.28
50364;BME280;36272;59.400;17.982;2023-11-19T21:34:14;101058.50;;;0.36;81.47
50364;BME280;36272;59.400;17.982;2023-11-19T21:39:16;101061.97;;;0.37;81.37
50364;BME280;36272;59.400;17.982;2023-11-19T21:44:17;101060.97;;;0.38;81.44
50364;BME280;36272;59.400;17.982;2023-11-19T21:49:19;101062.63;;;0.39;81.43
50364;BME280;36272;59.400;17.982;2023-11-19T21:54:21;101059.03;;;0.40;81.49
50364;BME280;36272;59.400;17.982;2023-11-19T21:59:23;101048.50;;;0.40;81.64
50364;BME280;36272;59.400;17.982;2023-11-19T22:04:24;101058.06;;;0.41;81.83
50364;BME280;36272;59.400;17.982;2023-11-19T22:09:29;101062.34;;;0.42;81.91
50364;BME280;36272;59.400;17.982;2023-11-19T22:14:31;101057.09;;;0.42;82.12
50364;BME280;36272;59.400;17.982;2023-11-19T22:19:36;101061.38;;;0.43;82.06
50364;BME280;36272;59.400;17.982;2023-11-19T22:24:38;101051.00;;;0.41;82.03
50364;BME280;36272;59.400;17.982;2023-11-19T22:29:40;101058.06;;;0.41;82.17
50364;BME280;36272;59.400;17.982;2023-11-19T22:34:44;101051.81;;;0.42;82.31
50364;BME280;36272;59.400;17.982;2023-11-19T22:39:46;101037.00;;;0.41;82.42
50364;BME280;36272;59.400;17.982;2023-11-19T22:44:47;101040.47;;;0.41;82.45
50364;BME280;36272;59.400;17.982;2023-11-19T22:49:49;101043.94;;;0.42;82.41
50364;BME280;36272;59.400;17.982;2023-11-19T22:54:53;101043.94;;;0.42;82.35
50364;BME280;36272;59.400;17.982;2023-11-19T22:59:57;101053.47;;;0.43;82.51
50364;BME280;36272;59.400;17.982;2023-11-19T23:04:59;101049.06;;;0.43;82.69
50364;BME280;36272;59.400;17.982;2023-11-19T23:10:00;101050.41;;;0.48;82.57
50364;BME280;36272;59.400;17.982;2023-11-19T23:15:02;101049.41;;;0.49;82.81
50364;BME280;36272;59.400;17.982;2023-11-19T23:20:09;101045.13;;;0.48;82.85
50364;BME280;36272;59.400;17.982;2023-11-19T23:25:14;101042.38;;;0.49;82.81
50364;BME280;36272;59.400;17.982;2023-11-19T23:30:16;101054.38;;;0.52;83.03
50364;BME280;36272;59.400;17.982;2023-11-19T23:35:17;101051.75;;;0.52;83.06
50364;BME280;36272;59.400;17.982;2023-11-19T23:40:19;101051.47;;;0.55;83.15
50364;BME280;36272;59.400;17.982;2023-11-19T23:45:21;101046.75;;;0.58;82.96
50364;BME280;36272;59.400;17.982;2023-11-19T23:50:22;101050.19;;;0.59;83.19
50364;BME280;36272;59.400;17.982;2023-11-19T23:55:24;101057.00;;;0.62;83.27
